Time;durP1;ratioP1;P1;durP2;ratioP2;P2;SDS_P1;SDS_P2;PMS_P1;PMS_P2;Temp;Humidity;BMP_temperature;BMP_pressure;BME280_temperature;BME280_humidity;BME280_pressure;Samples;Min_cycle;Max_cycle;Signal;HPM_P1;HPM_P2
2022/07/27 06:09:39;;;;;;;6.00;4.53;;;;;;;28.46;39.65;100215.78;6606612;27;34764;-93
2022/07/27 06:12:43;;;;;;;6.12;4.30;;;;;;;28.80;37.78;100207.81;6605289;27;33451;-89
2022/07/27 06:15:46;;;;;;;8.15;4.22;;;;;;;27.89;39.13;100214.84;6606811;27;34253;-89
2022/07/27 06:18:49;;;;;;;6.10;4.30;;;;;;;27.69;39.11;100226.41;6581727;26;33244;-88
2022/07/27 06:21:52;;;;;;;4.95;4.45;;;;;;;28.34;38.65;100225.56;6552004;27;33674;-88
2022/07/27 06:25:08;;;;;;;7.07;4.07;;;;;;;28.49;38.40;100234.50;6558876;27;34418;-88
2022/07/27 06:28:12;;;;;;;6.45;4.03;;;;;;;28.97;36.50;100238.41;6616454;27;35337;-88
2022/07/27 06:34:44;;;;;;;8.23;3.60;;;;;;;33.13;29.30;100223.91;6590459;27;33181;-89
2022/07/27 06:37:51;;;;;;;3.75;3.25;;;;;;;34.22;28.14;100229.56;6608949;26;34600;-89
2022/07/27 06:40:55;;;;;;;5.87;3.20;;;;;;;33.36;28.32;100225.06;6601358;26;33921;-90
2022/07/27 06:43:58;;;;;;;3.58;3.28;;;;;;;31.89;29.46;100229.03;6599535;26;32364;-90
2022/07/27 08:26:58;;;;;;;3.70;2.97;;;;;;;32.24;28.91;100182.75;6591971;27;20068;-88
2022/07/27 08:30:09;;;;;;;4.32;3.12;;;;;;;31.58;28.50;100182.19;6607860;27;34953;-91
2022/07/27 08:33:16;;;;;;;11.20;3.15;;;;;;;32.27;27.71;100184.19;6607198;26;33812;-90
2022/07/27 08:36:19;;;;;;;5.45;2.78;;;;;;;31.89;28.46;100183.28;6588633;26;34390;-89
2022/07/27 08:39:22;;;;;;;4.68;2.85;;;;;;;32.13;27.56;100186.25;6610875;26;34725;-89
2022/07/27 09:32:58;;;;;;;6.47;5.95;;;;;;;35.64;21.85;100147.69;6604378;27;20422;-90
2022/07/27 09:36:01;;;;;;;6.72;6.10;;;;;;;36.39;21.38;100146.63;6620221;26;33676;-89
2022/07/27 09:39:06;;;;;;;7.20;6.57;;;;;;;36.31;21.59;100147.06;6612608;27;34227;-88
2022/07/27 09:42:15;;;;;;;12.15;11.02;;;;;;;36.36;21.39;100145.25;6590089;26;32297;-89
2022/07/27 09:45:42;;;;;;;13.70;12.48;;;;;;;35.85;20.31;100148.84;6610541;27;34589;-87
2022/07/27 09:48:53;;;;;;;13.35;12.10;;;;;;;35.70;19.32;100143.91;6608825;26;35145;-87
2022/07/27 09:51:56;;;;;;;13.02;11.73;;;;;;;36.87;17.89;100144.25;6607487;27;33774;-86
2022/07/27 09:55:06;;;;;;;11.85;10.52;;;;;;;37.56;16.93;100141.91;6607853;27;33897;-89
2022/07/27 09:58:15;;;;;;;11.93;10.35;;;;;;;38.88;15.98;100148.03;6570070;27;34204;-88
2022/07/27 10:01:22;;;;;;;10.82;9.82;;;;;;;39.40;16.37;100139.88;6586537;27;33962;-88
2022/07/27 10:04:25;;;;;;;11.02;9.90;;;;;;;38.80;15.61;100146.63;6592815;27;34246;-88
2022/07/27 10:11:15;;;;;;;10.63;9.63;;;;;;;37.55;17.77;100143.00;6608620;27;20072;-89
2022/07/27 10:14:17;;;;;;;12.27;10.93;;;;;;;37.15;17.47;100147.06;6561878;27;33676;-88
2022/07/27 10:17:21;;;;;;;11.40;10.18;;;;;;;36.21;17.49;100147.78;6560358;27;33668;-87
2022/07/27 10:20:24;;;;;;;11.50;10.40;;;;;;;36.50;17.44;100139.34;6561901;27;32865;-88
2022/07/27 10:23:28;;;;;;;9.75;8.85;;;;;;;36.82;17.50;100133.13;6581196;27;34566;-87
2022/07/27 10:26:42;;;;;;;9.23;8.27;;;;;;;36.39;18.33;100135.59;6581634;27;34290;-87
2022/07/27 10:29:49;;;;;;;10.07;9.02;;;;;;;36.71;18.35;100129.41;6564398;27;32479;-88
2022/07/27 10:32:52;;;;;;;8.98;8.13;;;;;;;37.51;17.68;100138.28;6582715;27;34364;-88
2022/07/27 10:35:55;;;;;;;9.60;8.43;;;;;;;36.95;17.38;100129.97;6571732;27;34037;-88
2022/07/27 10:39:06;;;;;;;10.43;8.02;;;;;;;38.76;15.43;100121.41;6567542;27;32633;-87
2022/07/27 10:42:38;;;;;;;7.80;7.00;;;;;;;40.18;14.56;100125.97;6615058;26;34049;-88
2022/07/27 10:45:49;;;;;;;7.03;6.32;;;;;;;39.05;14.54;100128.44;6594122;27;33605;-88
2022/07/27 10:49:20;;;;;;;7.12;6.47;;;;;;;38.87;15.20;100127.81;6607644;27;34286;-87
2022/07/27 10:53:01;;;;;;;6.40;5.82;;;;;;;38.17;16.04;100128.03;6608444;27;33883;-88
2022/07/27 10:56:05;;;;;;;6.90;6.22;;;;;;;37.97;14.82;100124.00;6576371;27;32838;-88
2022/07/27 10:59:08;;;;;;;6.25;5.65;;;;;;;37.88;16.24;100120.91;6588288;27;34156;-87
2022/07/27 11:02:13;;;;;;;7.43;6.70;;;;;;;36.20;17.88;100119.31;6589983;27;33086;-88
2022/07/27 11:05:16;;;;;;;7.37;6.78;;;;;;;35.48;17.13;100110.69;6589622;27;33766;-88
2022/07/27 11:08:41;;;;;;;7.85;6.03;;;;;;;36.03;17.58;100107.47;6608594;27;34119;-87
2022/07/27 11:11:51;;;;;;;6.70;6.10;;;;;;;35.66;19.20;100106.91;6588413;27;33947;-88
2022/07/27 11:14:57;;;;;;;6.60;6.05;;;;;;;35.99;18.04;100107.12;6589410;27;32293;-86
2022/07/27 11:18:05;;;;;;;7.10;6.40;;;;;;;36.56;16.50;100099.66;6607155;27;33783;-88
2022/07/27 11:21:25;;;;;;;6.90;6.05;;;;;;;36.74;17.09;100104.03;6588476;27;32770;-87
2022/07/27 11:24:28;;;;;;;7.68;5.60;;;;;;;35.50;17.59;100093.91;6610283;27;34316;-88
2022/07/27 11:27:45;;;;;;;6.30;5.80;;;;;;;35.17;18.81;100090.88;6603290;26;34575;-87
2022/07/27 11:30:48;;;;;;;6.57;5.70;;;;;;;35.12;19.30;100086.09;6587948;27;32998;-87
2022/07/27 11:33:52;;;;;;;6.22;5.72;;;;;;;35.70;18.06;100083.22;6612655;26;33998;-87
2022/07/27 11:37:00;;;;;;;6.75;5.90;;;;;;;34.66;18.69;100083.28;6623424;26;35102;-88
2022/07/27 11:40:03;;;;;;;5.40;4.90;;;;;;;34.79;19.02;100082.16;6619669;26;35455;-88
2022/07/27 11:43:41;;;;;;;5.47;4.97;;;;;;;35.00;18.76;100077.03;6624002;26;34409;-88
2022/07/27 11:46:48;;;;;;;5.60;5.10;;;;;;;34.98;18.78;100084.72;6623849;26;34976;-88
2022/07/27 11:49:51;;;;;;;4.57;4.20;;;;;;;34.86;19.22;100076.47;6615036;26;34114;-86
2022/07/27 11:52:56;;;;;;;10.10;4.82;;;;;;;35.24;17.81;100075.00;6604575;27;33026;-88
2022/07/27 11:56:05;;;;;;;7.07;4.80;;;;;;;35.35;18.12;100073.28;6617213;26;34839;-88
2022/07/27 11:59:29;;;;;;;7.95;4.78;;;;;;;35.57;18.58;100070.59;6613772;26;35226;-88
2022/07/27 12:02:33;;;;;;;14.38;5.75;;;;;;;33.72;19.46;100077.56;6618977;26;35710;-87
2022/07/27 12:05:36;;;;;;;4.90;4.20;;;;;;;33.75;19.48;100068.88;6566002;27;32616;-88
2022/07/27 12:08:38;;;;;;;4.72;4.32;;;;;;;33.47;20.15;100068.44;6563678;27;32675;-87
2022/07/27 12:11:54;;;;;;;4.90;4.43;;;;;;;34.11;19.81;100057.87;6560926;27;34051;-88
2022/07/27 12:15:12;;;;;;;6.37;4.70;;;;;;;34.22;19.65;100061.69;6580357;27;34568;-88
2022/07/27 12:18:42;;;;;;;5.03;4.35;;;;;;;33.79;22.47;100064.53;6563834;27;32970;-87
2022/07/27 12:21:52;;;;;;;;;;;;;;;33.72;20.21;100050.06;6582406;27;34162;-88
2022/07/27 12:24:58;;;;;;;8.07;4.80;;;;;;;33.48;20.35;100047.28;6582090;27;34158;-88
2022/07/27 12:28:11;;;;;;;4.62;4.22;;;;;;;33.33;20.84;100047.75;6589566;27;35217;-89
2022/07/27 12:31:17;;;;;;;4.72;4.32;;;;;;;32.94;20.71;100043.44;6594221;27;33768;-88
2022/07/27 12:42:01;;;;;;;5.05;4.55;;;;;;;33.14;21.52;100036.81;6611230;26;20389;-88
2022/07/27 12:52:32;;;;;;;4.53;4.12;;;;;;;33.06;21.72;100040.75;6591090;26;20067;-88
2022/07/27 12:55:36;;;;;;;4.87;4.50;;;;;;;33.20;20.52;100024.06;6581492;27;34251;-87
2022/07/27 12:58:55;;;;;;;5.90;4.55;;;;;;;33.09;20.29;100019.38;6580223;27;33993;-87
2022/07/27 13:01:59;;;;;;;5.10;4.57;;;;;;;32.91;21.20;100023.84;6580041;27;34033;-87
2022/07/27 13:05:13;;;;;;;5.55;4.47;;;;;;;33.10;20.58;100018.31;6581410;27;33895;-89
2022/07/27 13:08:16;;;;;;;6.65;4.72;;;;;;;33.11;20.51;100015.31;6584947;27;34114;-87
2022/07/27 13:11:19;;;;;;;6.20;4.62;;;;;;;33.00;21.00;100014.22;6584723;27;34406;-87
2022/07/27 13:14:22;;;;;;;4.82;4.43;;;;;;;32.56;20.33;100008.06;6584572;27;34266;-87
2022/07/27 13:17:27;;;;;;;4.80;4.30;;;;;;;32.43;22.10;100000.84;6583326;27;34045;-88
2022/07/27 13:20:30;;;;;;;5.30;4.85;;;;;;;32.22;21.68;100002.97;6578637;27;33477;-88
2022/07/27 13:23:33;;;;;;;4.62;4.22;;;;;;;32.42;21.27;100001.91;6580355;27;34176;-86
2022/07/27 13:26:37;;;;;;;5.10;4.60;;;;;;;32.75;20.89;99998.72;6580443;27;33855;-88
2022/07/27 13:29:40;;;;;;;5.18;4.68;;;;;;;32.48;21.35;100007.31;6592192;27;32775;-87
2022/07/27 13:32:45;;;;;;;5.65;4.65;;;;;;;32.75;20.78;99995.97;6597069;27;34459;-87
2022/07/27 13:35:48;;;;;;;5.32;4.30;;;;;;;32.47;20.72;99997.41;6579052;27;33142;-87
2022/07/27 13:39:02;;;;;;;4.97;4.53;;;;;;;32.71;21.57;100000.25;6578238;27;32678;-86
2022/07/27 13:42:05;;;;;;;5.72;4.05;;;;;;;32.72;20.97;99992.87;6578488;27;33791;-86
2022/07/27 13:45:08;;;;;;;4.85;4.28;;;;;;;32.43;22.12;99992.63;6580021;27;34098;-88
2022/07/27 13:48:13;;;;;;;7.93;4.47;;;;;;;32.25;21.25;99984.16;6578709;27;33528;-87
2022/07/27 13:51:16;;;;;;;4.75;4.18;;;;;;;32.61;21.39;99973.34;6587170;27;34688;-87
2022/07/27 13:54:19;;;;;;;5.32;4.65;;;;;;;32.66;21.86;99967.16;6606003;27;34645;-87
2022/07/27 13:57:22;;;;;;;5.10;4.40;;;;;;;32.62;21.78;99982.44;6611058;27;34726;-87
2022/07/27 14:00:24;;;;;;;5.62;4.00;;;;;;;32.54;21.18;99976.19;6586316;27;34398;-87
2022/07/27 14:03:27;;;;;;;6.07;4.40;;;;;;;32.50;21.30;99974.16;6606694;27;34048;-87
2022/07/27 14:06:36;;;;;;;4.20;3.90;;;;;;;32.59;21.17;99964.53;6588104;27;34054;-87
2022/07/27 14:13:02;;;;;;;4.15;3.80;;;;;;;32.35;21.39;99964.41;6586624;27;33640;-86
2022/07/27 14:16:10;;;;;;;4.93;4.43;;;;;;;32.38;21.56;99963.91;6586400;27;33849;-86
2022/07/27 14:19:13;;;;;;;4.37;3.90;;;;;;;32.67;21.12;99947.72;6605764;27;34432;-87
2022/07/27 14:22:16;;;;;;;5.43;4.10;;;;;;;32.56;21.51;99956.75;6606473;27;33789;-86
2022/07/27 14:25:19;;;;;;;4.55;4.00;;;;;;;32.64;20.99;99950.09;6606716;27;33863;-87
2022/07/27 14:28:23;;;;;;;6.12;4.07;;;;;;;32.39;21.08;99942.81;6610580;27;34044;-86
2022/07/27 14:31:26;;;;;;;4.60;4.20;;;;;;;32.12;21.28;99945.88;6606890;27;34594;-87
2022/07/27 14:34:29;;;;;;;11.15;4.22;;;;;;;32.03;22.16;99944.53;6586939;27;33491;-88
2022/07/27 14:37:33;;;;;;;4.62;4.25;;;;;;;31.86;22.54;99940.50;6585910;27;33665;-87
2022/07/27 14:40:38;;;;;;;4.20;3.90;;;;;;;32.07;22.40;99934.78;6605516;27;34026;-87
2022/07/27 14:43:54;;;;;;;4.57;4.10;;;;;;;32.10;22.00;99937.06;6589966;26;34849;-88
2022/07/27 14:46:57;;;;;;;4.43;4.10;;;;;;;31.97;22.09;99933.41;6588912;27;33159;-88
2022/07/27 14:50:00;;;;;;;5.60;4.12;;;;;;;31.82;21.98;99935.69;6587708;27;34042;-89
2022/07/27 14:53:03;;;;;;;5.07;4.07;;;;;;;31.88;21.96;99929.31;6586484;27;33857;-88
2022/07/27 14:56:06;;;;;;;5.03;3.95;;;;;;;31.99;22.04;99934.00;6586467;27;32436;-88
2022/07/27 14:59:09;;;;;;;6.68;4.20;;;;;;;31.87;22.61;99930.38;6595516;27;32659;-88
2022/07/27 15:02:12;;;;;;;5.40;4.05;;;;;;;31.95;22.77;99927.34;6617782;26;34209;-87
2022/07/27 15:05:15;;;;;;;4.60;4.05;;;;;;;31.97;22.37;99930.69;6606723;27;34508;-87
2022/07/27 15:08:18;;;;;;;4.35;3.95;;;;;;;31.63;22.29;99932.94;6605853;27;33984;-88
2022/07/27 15:11:21;;;;;;;5.05;4.15;;;;;;;31.76;21.97;99926.47;6605907;27;34869;-87
